Oakville, CA

11:35 PM PDT on September 30, 2014 (GMT -0700)
Yountville Deli (Washington St) | Change Station
CLOSE
Current Station
Personal Weather Station
Location: Yountville, CA
Elevation: 98 ft
Nearby Weather Stations

Elev 98 ft 38.40 °N, 122.36 °W | Updated 11 seconds ago

Clear
Clear
60.0 °F
Feels Like 60.0 °F
N
0.0
Wind Variable Wind from NNE
Gusts 0.0 mph

Today
High -- | Low -- °F
--% Chance of Precip.
Yesterday
High -- | Low -- °F
Precip. -- in
7:04 AM 6:53 PM
Waxing Crescent, 44% visible
Pressure 29.88 in
Visibility 6.0 miles
Clouds Mostly Cloudy 300 ft
Dew Point 55 °F
Humidity 84%
Rainfall 0.00 in
Snow Depth 0 in , 0 in , 1 in
UV 0 out of 12
Pollen 5.20 out of 12
Ozone Good
Flu Activity Not available.
METAR KO69 010615Z AUTO 31003KT 6SM BKN003 14/11 A2988 RMK AO1

More Conditions Fewer Conditions

Pressure 29.88 in
Visibility 6.0 miles
Clouds Mostly Cloudy 300 ft
Dew Point 55 °F
Humidity 84%
Rainfall 0.00 in
Snow Depth 0 in , 0 in , 1 in
UV 0 out of 12
Pollen 5.20 out of 12
Ozone Good
Flu Activity Not available.
METAR KO69 010615Z AUTO 31003KT 6SM BKN003 14/11 A2988 RMK AO1

More Conditions Fewer Conditions

10-Day Weather Forecast

Almanac

Astronomy

Sep. 30, 2014 Rise Set
Actual Time 7:04 AM PDT 6:53 PM PDT
Civil Twilight 6:38 AM PDT 7:20 PM PDT
Nautical Twilight 6:07 AM PDT 7:50 PM PDT
Astronomical Twilight 5:36 AM PDT 8:21 PM PDT
Moon 1:14 PM PDT (9/30) 11:32 PM PDT (9/30)
Length of Visible Light 12h 42m
Length of Day
11h 49m
Tomorrow will be 2m 28s shorter.
Waxing Crescent, 44% of the Moon is Illuminated
Oct 1
Waxing Crescent
Oct 1
First Quarter
Oct 8
Full
Oct 15
Last Quarter
Oct 23
New

Community

WunderPhotos

Upload Photos

1,757,886 photos uploaded!

Nearby

Air Quality

  Air Quality AQ Index Pollutant
Yesterday Good
OZONE
Current Good
OZONE
Tuesday Good
PM2.5
Wednesday Good
PM2.5
Thursday Moderate
PM2.5
Friday Moderate
PM2.5
Saturday Moderate
PM2.5
Sunday Moderate
PM2.5

Snow Depth

Station Depth Elevation
Heavenly Valley 0 in 8850 ft
Independence Camp 0 in 7000 ft
Leavitt Meadows 1 in 7200 ft
Monitor Pass 0 in 8350 ft
Summit Meadow 1 in 9122 ft

Earthquake Activity

City Distance Mag. Time & Date
East Foothills, California 74 miles 2.6 3:34 PM PDT
2014-09-30
South Dos Palos, California 150 miles 2.7 3:08 PM PDT
2014-09-30
South Dos Palos, California 150 miles 2.5 9:18 PM PDT
2014-09-29
American Canyon, California 18 miles 2.5 12:17 AM PDT
2014-09-29
Minimum magnitude displayed is 2.5.

Coastal Water Temperatures

Place Temperature
San Francisco, CA 64.0 °F
Richmond, CA 68.0 °F
Port Chicago, CA 70.0 °F

Nearby Weather Stations